sensor_id;sensor_type;location;lat;lon;timestamp;pressure;altitude;pressure_sealevel;temperature;humidity
61014;BME280;46899;47.542;19.082;2023-04-03T00:00:47;100361.84;;;6.12;84.24
61014;BME280;46899;47.542;19.082;2023-04-03T00:03:52;100358.50;;;6.09;84.65
61014;BME280;46899;47.542;19.082;2023-04-03T00:06:54;100361.97;;;6.06;85.56
61014;BME280;46899;47.542;19.082;2023-04-03T00:09:57;100360.28;;;6.04;87.11
61014;BME280;46899;47.542;19.082;2023-04-03T00:12:59;100360.22;;;6.08;85.02
61014;BME280;46899;47.542;19.082;2023-04-03T00:16:02;100361.09;;;6.06;85.43
61014;BME280;46899;47.542;19.082;2023-04-03T00:19:05;100356.81;;;6.06;85.00
61014;BME280;46899;47.542;19.082;2023-04-03T00:22:08;100360.22;;;6.08;84.64
61014;BME280;46899;47.542;19.082;2023-04-03T00:25:10;100366.19;;;6.12;83.96
61014;BME280;46899;47.542;19.082;2023-04-03T00:28:13;100366.28;;;6.07;85.09
61014;BME280;46899;47.542;19.082;2023-04-03T00:31:15;100369.69;;;6.08;85.21
61014;BME280;46899;47.542;19.082;2023-04-03T00:34:18;100365.50;;;6.01;84.56
61014;BME280;46899;47.542;19.082;2023-04-03T00:37:21;100366.28;;;6.06;83.91
61014;BME280;46899;47.542;19.082;2023-04-03T00:40:24;100374.22;;;5.95;84.25
61014;BME280;46899;47.542;19.082;2023-04-03T00:43:27;100366.37;;;6.00;85.08
61014;BME280;46899;47.542;19.082;2023-04-03T00:46:30;100381.06;;;5.96;85.90
61014;BME280;46899;47.542;19.082;2023-04-03T00:49:33;100372.44;;;5.97;84.27
61014;BME280;46899;47.542;19.082;2023-04-03T00:52:36;100374.84;;;6.08;84.56
61014;BME280;46899;47.542;19.082;2023-04-03T00:55:39;100373.25;;;6.01;85.41
61014;BME280;46899;47.542;19.082;2023-04-03T00:58:44;100389.59;;;6.01;84.80
61014;BME280;46899;47.542;19.082;2023-04-03T01:01:49;100392.25;;;5.97;85.31
61014;BME280;46899;47.542;19.082;2023-04-03T01:04:52;100391.44;;;5.95;84.82
61014;BME280;46899;47.542;19.082;2023-04-03T01:07:55;100395.63;;;6.02;83.86
61014;BME280;46899;47.542;19.082;2023-04-03T01:10:58;100393.91;;;6.02;84.55
61014;BME280;46899;47.542;19.082;2023-04-03T01:14:01;100393.91;;;6.01;82.91
61014;BME280;46899;47.542;19.082;2023-04-03T01:17:21;100399.13;;;5.96;83.36
61014;BME280;46899;47.542;19.082;2023-04-03T01:23:32;100390.53;;;5.96;82.97
61014;BME280;46899;47.542;19.082;2023-04-03T01:26:39;100394.09;;;5.89;82.44
61014;BME280;46899;47.542;19.082;2023-04-03T01:29:42;100390.72;;;5.84;84.58
61014;BME280;46899;47.542;19.082;2023-04-03T01:32:45;100386.34;;;5.89;83.11
61014;BME280;46899;47.542;19.082;2023-04-03T01:35:48;100388.12;;;5.84;82.63
61014;BME280;46899;47.542;19.082;2023-04-03T01:38:52;100385.66;;;5.75;83.03
61014;BME280;46899;47.542;19.082;2023-04-03T01:41:55;100396.06;;;5.72;82.85
61014;BME280;46899;47.542;19.082;2023-04-03T01:44:58;100390.91;;;5.72;85.59
61014;BME280;46899;47.542;19.082;2023-04-03T01:48:00;100389.19;;;5.72;81.74
61014;BME280;46899;47.542;19.082;2023-04-03T01:51:03;100394.38;;;5.69;81.98
61014;BME280;46899;47.542;19.082;2023-04-03T01:54:06;100397.88;;;5.65;82.13
61014;BME280;46899;47.542;19.082;2023-04-03T01:57:08;100398.75;;;5.64;82.75
61014;BME280;46899;47.542;19.082;2023-04-03T02:00:11;100400.56;;;5.56;81.45
61014;BME280;46899;47.542;19.082;2023-04-03T02:03:14;100409.19;;;5.55;82.58
61014;BME280;46899;47.542;19.082;2023-04-03T02:06:17;100408.25;;;5.62;81.64
61014;BME280;46899;47.542;19.082;2023-04-03T02:09:19;100407.44;;;5.57;82.03
61014;BME280;46899;47.542;19.082;2023-04-03T02:12:22;100404.91;;;5.54;83.54
61014;BME280;46899;47.542;19.082;2023-04-03T02:15:25;100404.94;;;5.52;81.67
61014;BME280;46899;47.542;19.082;2023-04-03T02:18:28;100417.06;;;5.44;83.01
61014;BME280;46899;47.542;19.082;2023-04-03T02:21:30;100419.72;;;5.40;83.42
61014;BME280;46899;47.542;19.082;2023-04-03T02:24:33;100418.06;;;5.36;82.92
61014;BME280;46899;47.542;19.082;2023-04-03T02:27:35;100412.06;;;5.34;85.10
61014;BME280;46899;47.542;19.082;2023-04-03T02:30:38;100412.12;;;5.29;83.62
61014;BME280;46899;47.542;19.082;2023-04-03T02:33:41;100415.72;;;5.16;84.68
61014;BME280;46899;47.542;19.082;2023-04-03T02:36:44;100412.31;;;5.14;85.64
61014;BME280;46899;47.542;19.082;2023-04-03T02:39:47;100415.84;;;5.04;85.12
61014;BME280;46899;47.542;19.082;2023-04-03T02:42:50;100411.59;;;5.02;84.68
61014;BME280;46899;47.542;19.082;2023-04-03T02:45:53;100406.47;;;4.99;85.36
61014;BME280;46899;47.542;19.082;2023-04-03T02:48:55;100418.47;;;5.00;85.25
61014;BME280;46899;47.542;19.082;2023-04-03T02:51:58;100406.50;;;4.96;84.79
61014;BME280;46899;47.542;19.082;2023-04-03T02:55:01;100409.13;;;4.91;85.66
61014;BME280;46899;47.542;19.082;2023-04-03T02:58:04;100401.41;;;4.91;84.85
61014;BME280;46899;47.542;19.082;2023-04-03T03:01:10;100403.97;;;4.91;85.41
61014;BME280;46899;47.542;19.082;2023-04-03T03:04:12;100410.84;;;4.91;86.82
61014;BME280;46899;47.542;19.082;2023-04-03T03:07:15;100416.09;;;4.84;85.91
61014;BME280;46899;47.542;19.082;2023-04-03T03:10:17;100411.78;;;4.83;85.58
61014;BME280;46899;47.542;19.082;2023-04-03T03:13:20;100418.78;;;4.75;86.23
61014;BME280;46899;47.542;19.082;2023-04-03T03:16:22;100426.56;;;4.68;87.76
61014;BME280;46899;47.542;19.082;2023-04-03T03:19:25;100421.44;;;4.68;86.13
61014;BME280;46899;47.542;19.082;2023-04-03T03:22:28;100432.63;;;4.65;87.24
61014;BME280;46899;47.542;19.082;2023-04-03T03:25:33;100425.72;;;4.67;87.48
61014;BME280;46899;47.542;19.082;2023-04-03T03:28:36;100429.19;;;4.65;87.24
61014;BME280;46899;47.542;19.082;2023-04-03T03:31:39;100427.50;;;4.61;87.12
61014;BME280;46899;47.542;19.082;2023-04-03T03:34:42;100427.50;;;4.59;88.04
61014;BME280;46899;47.542;19.082;2023-04-03T03:37:44;100423.28;;;4.54;87.96
61014;BME280;46899;47.542;19.082;2023-04-03T03:40:48;100426.75;;;4.50;88.59
61014;BME280;46899;47.542;19.082;2023-04-03T03:43:51;100421.62;;;4.47;88.25
61014;BME280;46899;47.542;19.082;2023-04-03T03:46:54;100426.75;;;4.51;88.55
61014;BME280;46899;47.542;19.082;2023-04-03T03:49:57;100429.38;;;4.44;88.82
61014;BME280;46899;47.542;19.082;2023-04-03T03:53:00;100426.84;;;4.39;89.53
61014;BME280;46899;47.542;19.082;2023-04-03T03:56:03;100429.44;;;4.38;90.54
61014;BME280;46899;47.542;19.082;2023-04-03T03:59:07;100428.59;;;4.37;89.78
61014;BME280;46899;47.542;19.082;2023-04-03T04:02:10;100438.06;;;4.35;89.17
61014;BME280;46899;47.542;19.082;2023-04-03T04:05:13;100430.41;;;4.25;90.95
61014;BME280;46899;47.542;19.082;2023-04-03T04:08:16;100437.31;;;4.20;90.25
61014;BME280;46899;47.542;19.082;2023-04-03T04:11:19;100428.75;;;4.18;90.64
61014;BME280;46899;47.542;19.082;2023-04-03T04:14:24;100427.94;;;4.11;91.53
61014;BME280;46899;47.542;19.082;2023-04-03T04:17:27;100432.25;;;4.06;91.31
61014;BME280;46899;47.542;19.082;2023-04-03T04:20:30;100434.03;;;4.02;92.28
61014;BME280;46899;47.542;19.082;2023-04-03T04:23:33;100443.50;;;3.94;92.91
61014;BME280;46899;47.542;19.082;2023-04-03T04:26:36;100446.06;;;3.97;92.36
61014;BME280;46899;47.542;19.082;2023-04-03T04:29:39;100442.72;;;3.83;93.04
61014;BME280;46899;47.542;19.082;2023-04-03T04:32:42;100452.16;;;3.80;92.75
61014;BME280;46899;47.542;19.082;2023-04-03T04:35:46;100451.31;;;3.79;94.39
61014;BME280;46899;47.542;19.082;2023-04-03T04:38:49;100444.41;;;3.84;93.16
61014;BME280;46899;47.542;19.082;2023-04-03T04:41:55;100445.31;;;3.80;93.39
61014;BME280;46899;47.542;19.082;2023-04-03T04:44:58;100450.44;;;3.83;94.78
61014;BME280;46899;47.542;19.082;2023-04-03T04:48:01;100450.47;;;3.80;93.27
61014;BME280;46899;47.542;19.082;2023-04-03T04:51:03;100457.31;;;3.80;94.97
61014;BME280;46899;47.542;19.082;2023-04-03T04:54:07;100449.56;;;3.84;93.66
61014;BME280;46899;47.542;19.082;2023-04-03T04:57:10;100453.84;;;3.88;93.90
61014;BME280;46899;47.542;19.082;2023-04-03T05:00:14;100444.34;;;3.93;93.13
61014;BME280;46899;47.542;19.082;2023-04-03T05:03:18;100455.56;;;3.91;93.84
61014;BME280;46899;47.542;19.082;2023-04-03T05:06:20;100458.03;;;4.01;94.55
61014;BME280;46899;47.542;19.082;2023-04-03T05:09:24;100461.41;;;4.08;92.44
61014;BME280;46899;47.542;19.082;2023-04-03T05:12:27;100466.53;;;4.12;92.27
61014;BME280;46899;47.542;19.082;2023-04-03T05:15:30;100464.72;;;4.28;92.21
61014;BME280;46899;47.542;19.082;2023-04-03T05:18:33;100472.34;;;4.40;90.95
61014;BME280;46899;47.542;19.082;2023-04-03T05:21:36;100471.41;;;4.49;91.12
61014;BME280;46899;47.542;19.082;2023-04-03T05:24:40;100477.47;;;4.42;90.48
61014;BME280;46899;47.542;19.082;2023-04-03T05:27:43;100489.47;;;4.46;91.12
61014;BME280;46899;47.542;19.082;2023-04-03T05:30:52;100485.22;;;4.42;91.15
61014;BME280;46899;47.542;19.082;2023-04-03T05:33:56;100481.63;;;4.58;89.17
61014;BME280;46899;47.542;19.082;2023-04-03T05:36:59;100474.63;;;4.75;89.53
61014;BME280;46899;47.542;19.082;2023-04-03T05:40:03;100470.00;;;5.04;87.66
61014;BME280;46899;47.542;19.082;2023-04-03T05:43:06;100470.87;;;5.03;86.66
61014;BME280;46899;47.542;19.082;2023-04-03T05:46:10;100479.38;;;5.11;87.02
61014;BME280;46899;47.542;19.082;2023-04-03T05:49:14;100484.16;;;5.44;84.61
61014;BME280;46899;47.542;19.082;2023-04-03T05:52:18;100481.69;;;5.35;85.38
61014;BME280;46899;47.542;19.082;2023-04-03T05:55:23;100486.75;;;5.43;84.52
61014;BME280;46899;47.542;19.082;2023-04-03T05:58:25;100489.69;;;5.11;85.00
61014;BME280;46899;47.542;19.082;2023-04-03T06:01:28;100491.75;;;4.79;86.24
61014;BME280;46899;47.542;19.082;2023-04-03T06:04:34;100488.31;;;4.78;87.26
61014;BME280;46899;47.542;19.082;2023-04-03T06:07:47;100489.06;;;4.91;87.58
61014;BME280;46899;47.542;19.082;2023-04-03T06:10:51;100496.75;;;5.69;84.16
61014;BME280;46899;47.542;19.082;2023-04-03T06:13:54;100496.34;;;6.02;80.32
61014;BME280;46899;47.542;19.082;2023-04-03T06:16:57;100493.41;;;6.26;79.32
61014;BME280;46899;47.542;19.082;2023-04-03T06:20:01;100496.75;;;6.33;78.25
61014;BME280;46899;47.542;19.082;2023-04-03T06:23:05;100507.13;;;6.31;79.39
61014;BME280;46899;47.542;19.082;2023-04-03T06:26:09;100506.13;;;6.38;77.94
61014;BME280;46899;47.542;19.082;2023-04-03T06:29:12;100503.62;;;6.32;78.71
61014;BME280;46899;47.542;19.082;2023-04-03T06:32:15;100505.56;;;6.18;79.73
61014;BME280;46899;47.542;19.082;2023-04-03T06:35:18;100511.28;;;6.40;78.06
61014;BME280;46899;47.542;19.082;2023-04-03T06:38:20;100497.06;;;6.65;75.64
61014;BME280;46899;47.542;19.082;2023-04-03T06:41:23;100507.41;;;7.14;74.02
61014;BME280;46899;47.542;19.082;2023-04-03T06:44:28;100502.56;;;8.59;68.54
61014;BME280;46899;47.542;19.082;2023-04-03T06:47:30;100507.91;;;10.08;58.14
61014;BME280;46899;47.542;19.082;2023-04-03T06:50:33;100513.22;;;10.05;56.13
61014;BME280;46899;47.542;19.082;2023-04-03T06:53:35;100510.50;;;9.51;58.23
61014;BME280;46899;47.542;19.082;2023-04-03T06:56:38;100521.22;;;9.69;56.71
61014;BME280;46899;47.542;19.082;2023-04-03T06:59:41;100519.22;;;9.78;57.19
61014;BME280;46899;47.542;19.082;2023-04-03T07:02:43;100515.28;;;10.77;54.17
61014;BME280;46899;47.542;19.082;2023-04-03T07:05:45;100527.88;;;10.63;52.53
61014;BME280;46899;47.542;19.082;2023-04-03T07:08:48;100530.75;;;10.28;53.94
61014;BME280;46899;47.542;19.082;2023-04-03T07:11:51;100530.03;;;9.94;56.28
61014;BME280;46899;47.542;19.082;2023-04-03T07:14:54;100536.44;;;9.21;55.42
61014;BME280;46899;47.542;19.082;2023-04-03T07:17:57;100542.63;;;9.15;58.02
61014;BME280;46899;47.542;19.082;2023-04-03T07:20:59;100542.56;;;8.84;59.25
61014;BME280;46899;47.542;19.082;2023-04-03T07:24:02;100547.97;;;9.09;60.03
61014;BME280;46899;47.542;19.082;2023-04-03T07:27:05;100543.94;;;9.31;57.47
61014;BME280;46899;47.542;19.082;2023-04-03T07:30:08;100539.66;;;9.29;56.57
61014;BME280;46899;47.542;19.082;2023-04-03T07:33:12;100546.34;;;9.37;55.51
61014;BME280;46899;47.542;19.082;2023-04-03T07:36:16;100546.94;;;9.48;55.01
61014;BME280;46899;47.542;19.082;2023-04-03T07:39:19;100553.19;;;9.40;56.91
61014;BME280;46899;47.542;19.082;2023-04-03T07:42:22;100546.44;;;9.34;57.54
61014;BME280;46899;47.542;19.082;2023-04-03T07:45:24;100547.34;;;9.64;56.47
61014;BME280;46899;47.542;19.082;2023-04-03T07:48:27;100555.25;;;9.90;52.22
61014;BME280;46899;47.542;19.082;2023-04-03T07:51:29;100550.19;;;9.86;55.01
61014;BME280;46899;47.542;19.082;2023-04-03T07:54:32;100554.34;;;10.22;52.59
61014;BME280;46899;47.542;19.082;2023-04-03T07:57:35;100555.25;;;9.90;52.42
61014;BME280;46899;47.542;19.082;2023-04-03T08:00:38;100561.31;;;10.20;51.63
61014;BME280;46899;47.542;19.082;2023-04-03T08:03:41;100556.75;;;10.28;53.07
61014;BME280;46899;47.542;19.082;2023-04-03T08:06:45;100561.22;;;10.52;50.68
61014;BME280;46899;47.542;19.082;2023-04-03T08:09:48;100559.81;;;10.94;50.70
61014;BME280;46899;47.542;19.082;2023-04-03T08:12:51;100554.66;;;11.44;49.35
61014;BME280;46899;47.542;19.082;2023-04-03T08:15:54;100560.06;;;11.38;47.75
61014;BME280;46899;47.542;19.082;2023-04-03T08:18:57;100564.41;;;11.62;47.75
61014;BME280;46899;47.542;19.082;2023-04-03T08:22:00;100564.91;;;12.19;45.04
61014;BME280;46899;47.542;19.082;2023-04-03T08:25:05;100565.56;;;12.01;45.16
61014;BME280;46899;47.542;19.082;2023-04-03T08:28:09;100558.16;;;12.79;45.83
61014;BME280;46899;47.542;19.082;2023-04-03T08:31:13;100562.44;;;13.23;43.29
61014;BME280;46899;47.542;19.082;2023-04-03T08:34:16;100563.31;;;13.02;41.63
61014;BME280;46899;47.542;19.082;2023-04-03T08:37:19;100563.09;;;13.08;41.25
61014;BME280;46899;47.542;19.082;2023-04-03T08:40:23;100567.72;;;14.01;41.55
61014;BME280;46899;47.542;19.082;2023-04-03T08:46:38;100567.22;;;13.14;45.30
61014;BME280;46899;47.542;19.082;2023-04-03T08:50:17;100566.31;;;12.93;46.23
61014;BME280;46899;47.542;19.082;2023-04-03T08:53:16;100567.66;;;12.60;43.36
61014;BME280;46899;47.542;19.082;2023-04-03T08:56:21;100570.56;;;12.52;41.76
61014;BME280;46899;47.542;19.082;2023-04-03T08:59:29;100561.25;;;12.88;42.69
61014;BME280;46899;47.542;19.082;2023-04-03T09:02:35;100565.69;;;13.08;40.64
61014;BME280;46899;47.542;19.082;2023-04-03T09:15:16;100567.41;;;12.44;44.36
61014;BME280;46899;47.542;19.082;2023-04-03T09:18:39;100560.00;;;12.33;44.09
61014;BME280;46899;47.542;19.082;2023-04-03T09:21:45;100555.50;;;12.37;44.48
61014;BME280;46899;47.542;19.082;2023-04-03T09:24:59;100564.19;;;12.37;43.84
61014;BME280;46899;47.542;19.082;2023-04-03T09:28:03;100572.03;;;12.81;42.50
61014;BME280;46899;47.542;19.082;2023-04-03T09:31:14;100564.75;;;12.46;44.30
61014;BME280;46899;47.542;19.082;2023-04-03T09:34:19;100567.41;;;11.99;45.64
61014;BME280;46899;47.542;19.082;2023-04-03T09:37:40;100561.75;;;12.33;45.83
61014;BME280;46899;47.542;19.082;2023-04-03T09:40:50;100566.56;;;12.22;44.01
61014;BME280;46899;47.542;19.082;2023-04-03T09:43:54;100560.22;;;12.27;46.40
61014;BME280;46899;47.542;19.082;2023-04-03T09:46:56;100565.78;;;13.05;43.54
61014;BME280;46899;47.542;19.082;2023-04-03T09:53:24;100562.06;;;12.69;42.67
61014;BME280;46899;47.542;19.082;2023-04-03T09:56:29;100561.06;;;11.83;44.87
61014;BME280;46899;47.542;19.082;2023-04-03T09:59:32;100553.69;;;11.46;45.22
61014;BME280;46899;47.542;19.082;2023-04-03T10:02:38;100556.97;;;11.51;44.76
61014;BME280;46899;47.542;19.082;2023-04-03T10:05:42;100555.06;;;11.32;44.87
61014;BME280;46899;47.542;19.082;2023-04-03T10:08:44;100562.09;;;11.79;43.51
61014;BME280;46899;47.542;19.082;2023-04-03T10:12:07;100561.12;;;11.82;45.67
61014;BME280;46899;47.542;19.082;2023-04-03T10:15:12;100565.91;;;11.69;43.67
61014;BME280;46899;47.542;19.082;2023-04-03T10:18:59;100562.06;;;12.02;43.38
61014;BME280;46899;47.542;19.082;2023-04-03T10:25:02;100560.03;;;12.10;43.47
61014;BME280;46899;47.542;19.082;2023-04-03T10:31:13;100557.44;;;12.10;45.18
61014;BME280;46899;47.542;19.082;2023-04-03T10:37:30;100566.00;;;11.91;42.76
61014;BME280;46899;47.542;19.082;2023-04-03T10:50:26;100561.72;;;12.11;40.50
61014;BME280;46899;47.542;19.082;2023-04-03T10:57:03;100554.44;;;12.64;41.33
61014;BME280;46899;47.542;19.082;2023-04-03T11:00:16;100549.16;;;13.08;39.72
61014;BME280;46899;47.542;19.082;2023-04-03T11:03:29;100555.06;;;13.13;39.55
61014;BME280;46899;47.542;19.082;2023-04-03T11:06:44;100554.84;;;13.17;39.70
61014;BME280;46899;47.542;19.082;2023-04-03T11:09:52;100554.06;;;12.73;39.85
61014;BME280;46899;47.542;19.082;2023-04-03T11:12:58;100545.78;;;13.06;38.70
61014;BME280;46899;47.542;19.082;2023-04-03T11:16:04;100544.69;;;12.89;39.74
61014;BME280;46899;47.542;19.082;2023-04-03T11:22:13;100546.63;;;12.84;39.64
61014;BME280;46899;47.542;19.082;2023-04-03T11:25:21;100544.69;;;12.68;40.31
61014;BME280;46899;47.542;19.082;2023-04-03T11:28:25;100540.19;;;12.93;39.83
61014;BME280;46899;47.542;19.082;2023-04-03T11:31:40;100539.25;;;12.94;38.93
61014;BME280;46899;47.542;19.082;2023-04-03T11:34:48;100531.97;;;13.02;38.93
61014;BME280;46899;47.542;19.082;2023-04-03T11:37:53;100529.28;;;13.03;38.85
61014;BME280;46899;47.542;19.082;2023-04-03T11:40:57;100521.50;;;12.82;39.56
61014;BME280;46899;47.542;19.082;2023-04-03T11:47:03;100522.06;;;12.25;41.47
61014;BME280;46899;47.542;19.082;2023-04-03T11:50:06;100521.75;;;12.11;40.98
61014;BME280;46899;47.542;19.082;2023-04-03T11:53:25;100520.72;;;12.36;40.14
61014;BME280;46899;47.542;19.082;2023-04-03T11:56:28;100520.09;;;12.08;40.46
61014;BME280;46899;47.542;19.082;2023-04-03T11:59:36;100522.53;;;11.91;41.16
61014;BME280;46899;47.542;19.082;2023-04-03T12:02:39;100525.25;;;11.88;41.70
61014;BME280;46899;47.542;19.082;2023-04-03T12:05:56;100520.12;;;11.85;40.57
61014;BME280;46899;47.542;19.082;2023-04-03T12:08:59;100525.94;;;11.92;41.16
61014;BME280;46899;47.542;19.082;2023-04-03T12:12:20;100520.84;;;11.65;41.78
61014;BME280;46899;47.542;19.082;2023-04-03T12:15:38;100514.09;;;11.60;42.09
61014;BME280;46899;47.542;19.082;2023-04-03T12:25:00;100511.75;;;12.00;41.20
61014;BME280;46899;47.542;19.082;2023-04-03T12:28:21;100505.13;;;12.13;41.42
61014;BME280;46899;47.542;19.082;2023-04-03T12:31:25;100515.56;;;12.13;39.85
61014;BME280;46899;47.542;19.082;2023-04-03T12:40:56;100503.62;;;12.08;40.52
61014;BME280;46899;47.542;19.082;2023-04-03T12:47:06;100505.06;;;11.70;42.07
61014;BME280;46899;47.542;19.082;2023-04-03T12:50:18;100500.78;;;12.14;40.33
61014;BME280;46899;47.542;19.082;2023-04-03T12:53:31;100497.00;;;11.99;40.83
61014;BME280;46899;47.542;19.082;2023-04-03T12:56:36;100496.06;;;11.79;41.04
61014;BME280;46899;47.542;19.082;2023-04-03T12:59:39;100499.78;;;11.95;40.49
61014;BME280;46899;47.542;19.082;2023-04-03T13:02:43;100502.44;;;11.93;40.44
61014;BME280;46899;47.542;19.082;2023-04-03T13:05:47;100493.53;;;12.20;41.39
61014;BME280;46899;47.542;19.082;2023-04-03T13:08:54;100489.34;;;12.60;40.14
61014;BME280;46899;47.542;19.082;2023-04-03T13:15:11;100476.66;;;12.92;40.53
61014;BME280;46899;47.542;19.082;2023-04-03T13:21:27;100469.53;;;12.96;37.51
61014;BME280;46899;47.542;19.082;2023-04-03T13:24:31;100470.22;;;13.21;38.52
61014;BME280;46899;47.542;19.082;2023-04-03T13:27:35;100469.56;;;13.16;38.34
61014;BME280;46899;47.542;19.082;2023-04-03T13:30:38;100468.50;;;13.00;37.57
61014;BME280;46899;47.542;19.082;2023-04-03T13:33:45;100462.28;;;13.02;38.82
61014;BME280;46899;47.542;19.082;2023-04-03T13:36:59;100458.31;;;12.94;38.49
61014;BME280;46899;47.542;19.082;2023-04-03T13:43:19;100466.03;;;13.17;37.32
61014;BME280;46899;47.542;19.082;2023-04-03T13:46:24;100462.44;;;13.20;37.40
61014;BME280;46899;47.542;19.082;2023-04-03T13:56:00;100459.06;;;12.96;37.62
61014;BME280;46899;47.542;19.082;2023-04-03T14:02:38;100446.41;;;12.87;37.51
61014;BME280;46899;47.542;19.082;2023-04-03T14:05:38;100433.50;;;13.04;38.14
61014;BME280;46899;47.542;19.082;2023-04-03T14:08:42;100430.63;;;12.90;38.56
61014;BME280;46899;47.542;19.082;2023-04-03T14:11:46;100441.72;;;12.55;38.57
61014;BME280;46899;47.542;19.082;2023-04-03T14:14:49;100433.44;;;12.23;38.54
61014;BME280;46899;47.542;19.082;2023-04-03T14:17:52;100433.53;;;12.42;39.39
61014;BME280;46899;47.542;19.082;2023-04-03T14:20:54;100434.09;;;12.28;38.43
61014;BME280;46899;47.542;19.082;2023-04-03T14:23:57;100426.66;;;12.19;38.97
61014;BME280;46899;47.542;19.082;2023-04-03T14:26:59;100428.28;;;12.22;38.99
61014;BME280;46899;47.542;19.082;2023-04-03T14:30:02;100423.63;;;11.87;38.61
61014;BME280;46899;47.542;19.082;2023-04-03T14:33:06;100426.87;;;11.92;38.99
61014;BME280;46899;47.542;19.082;2023-04-03T14:36:23;100432.44;;;11.83;39.06
61014;BME280;46899;47.542;19.082;2023-04-03T14:39:27;100435.56;;;11.92;38.91
61014;BME280;46899;47.542;19.082;2023-04-03T14:42:32;100431.13;;;11.94;38.97
61014;BME280;46899;47.542;19.082;2023-04-03T14:45:34;100428.47;;;12.17;39.38
61014;BME280;46899;47.542;19.082;2023-04-03T14:48:37;100424.34;;;11.90;38.74
61014;BME280;46899;47.542;19.082;2023-04-03T14:51:40;100434.22;;;12.04;39.29
61014;BME280;46899;47.542;19.082;2023-04-03T14:54:42;100434.53;;;11.96;39.29
61014;BME280;46899;47.542;19.082;2023-04-03T14:57:45;100438.53;;;11.83;40.21
61014;BME280;46899;47.542;19.082;2023-04-03T15:00:47;100436.34;;;11.73;39.59
61014;BME280;46899;47.542;19.082;2023-04-03T15:03:50;100430.69;;;11.60;39.90
61014;BME280;46899;47.542;19.082;2023-04-03T15:06:53;100434.84;;;11.65;39.89
61014;BME280;46899;47.542;19.082;2023-04-03T15:09:56;100440.56;;;11.52;41.09
61014;BME280;46899;47.542;19.082;2023-04-03T15:12:59;100430.13;;;11.52;40.63
61014;BME280;46899;47.542;19.082;2023-04-03T15:16:01;100436.78;;;11.37;41.30
61014;BME280;46899;47.542;19.082;2023-04-03T15:19:04;100433.69;;;11.49;41.89
61014;BME280;46899;47.542;19.082;2023-04-03T15:22:11;100437.66;;;11.36;40.85
61014;BME280;46899;47.542;19.082;2023-04-03T15:25:15;100437.44;;;11.19;41.70
61014;BME280;46899;47.542;19.082;2023-04-03T15:28:31;100442.50;;;10.74;42.65
61014;BME280;46899;47.542;19.082;2023-04-03T15:31:35;100432.47;;;10.38;43.11
61014;BME280;46899;47.542;19.082;2023-04-03T15:34:38;100429.78;;;10.14;44.01
61014;BME280;46899;47.542;19.082;2023-04-03T15:37:40;100438.81;;;10.01;45.05
61014;BME280;46899;47.542;19.082;2023-04-03T15:40:44;100434.09;;;9.86;45.13
61014;BME280;46899;47.542;19.082;2023-04-03T15:43:49;100442.41;;;9.70;44.95
61014;BME280;46899;47.542;19.082;2023-04-03T15:46:51;100438.38;;;9.59;45.32
61014;BME280;46899;47.542;19.082;2023-04-03T15:49:54;100436.06;;;9.50;45.58
61014;BME280;46899;47.542;19.082;2023-04-03T15:52:57;100450.25;;;9.39;46.30
61014;BME280;46899;47.542;19.082;2023-04-03T15:56:00;100447.59;;;9.40;45.92
61014;BME280;46899;47.542;19.082;2023-04-03T15:59:02;100453.25;;;9.25;46.18
61014;BME280;46899;47.542;19.082;2023-04-03T16:02:07;100453.47;;;9.16;46.44
61014;BME280;46899;47.542;19.082;2023-04-03T16:05:12;100450.00;;;9.17;47.42
61014;BME280;46899;47.542;19.082;2023-04-03T16:08:15;100458.09;;;9.05;47.46
61014;BME280;46899;47.542;19.082;2023-04-03T16:11:18;100465.16;;;9.00;45.89
61014;BME280;46899;47.542;19.082;2023-04-03T16:14:21;100461.31;;;8.82;45.61
61014;BME280;46899;47.542;19.082;2023-04-03T16:17:23;100465.16;;;8.68;45.34
61014;BME280;46899;47.542;19.082;2023-04-03T16:20:28;100453.91;;;8.69;44.93
61014;BME280;46899;47.542;19.082;2023-04-03T16:23:31;100450.81;;;8.55;45.58
61014;BME280;46899;47.542;19.082;2023-04-03T16:26:33;100467.19;;;8.55;46.10
61014;BME280;46899;47.542;19.082;2023-04-03T16:29:36;100453.03;;;8.35;44.90
61014;BME280;46899;47.542;19.082;2023-04-03T16:32:38;100459.88;;;8.37;45.46
61014;BME280;46899;47.542;19.082;2023-04-03T16:35:41;100464.44;;;8.27;45.70
61014;BME280;46899;47.542;19.082;2023-04-03T16:38:45;100473.94;;;8.25;44.79
61014;BME280;46899;47.542;19.082;2023-04-03T16:41:47;100479.41;;;8.13;44.42
61014;BME280;46899;47.542;19.082;2023-04-03T16:44:50;100481.41;;;8.02;45.60
61014;BME280;46899;47.542;19.082;2023-04-03T16:47:53;100491.78;;;8.02;45.59
61014;BME280;46899;47.542;19.082;2023-04-03T16:50:55;100499.56;;;8.01;44.81
61014;BME280;46899;47.542;19.082;2023-04-03T16:53:58;100506.06;;;7.80;45.33
61014;BME280;46899;47.542;19.082;2023-04-03T16:57:00;100515.66;;;7.75;44.89
61014;BME280;46899;47.542;19.082;2023-04-03T17:00:03;100518.25;;;7.75;44.90
61014;BME280;46899;47.542;19.082;2023-04-03T17:03:07;100529.75;;;7.62;45.25
61014;BME280;46899;47.542;19.082;2023-04-03T17:06:10;100532.44;;;7.56;46.15
61014;BME280;46899;47.542;19.082;2023-04-03T17:09:18;100545.53;;;7.50;45.44
61014;BME280;46899;47.542;19.082;2023-04-03T17:12:20;100559.44;;;7.46;45.87
61014;BME280;46899;47.542;19.082;2023-04-03T17:15:23;100567.19;;;7.44;45.46
61014;BME280;46899;47.542;19.082;2023-04-03T17:18:27;100565.66;;;7.36;45.85
61014;BME280;46899;47.542;19.082;2023-04-03T17:21:29;100573.53;;;7.30;45.93